createdAt,value
2018-08-31T00:01:33.399Z,5.20
2018-08-31T00:04:45.973Z,4.87
2018-08-31T00:08:45.842Z,4.90
2018-08-31T00:13:00.168Z,5.07
2018-08-31T00:15:28.703Z,5.90
2018-08-31T00:17:57.056Z,5.60
2018-08-31T00:20:25.614Z,5.17
2018-08-31T00:22:53.900Z,5.73
2018-08-31T00:26:12.768Z,5.50
2018-08-31T00:29:41.754Z,4.77
2018-08-31T00:32:26.910Z,5.20
2018-08-31T00:35:27.624Z,4.70
2018-08-31T00:40:16.494Z,5.67
2018-08-31T00:45:15.604Z,5.10
2018-08-31T00:47:44.085Z,4.80
2018-08-31T00:50:12.416Z,5.57
2018-08-31T00:52:40.744Z,5.33
2018-08-31T00:55:08.954Z,5.47
2018-08-31T00:57:38.422Z,5.77
2018-08-31T01:00:06.762Z,4.90
2018-08-31T01:02:35.180Z,4.40
2018-08-31T01:05:03.423Z,4.90
2018-08-31T01:07:31.786Z,4.80
2018-08-31T01:09:59.950Z,5.03
2018-08-31T01:12:28.457Z,4.63
2018-08-31T01:14:56.694Z,4.40
2018-08-31T01:17:25.175Z,4.27
2018-08-31T01:19:53.409Z,4.20
2018-08-31T01:22:21.705Z,4.07
2018-08-31T01:24:49.950Z,4.13
2018-08-31T01:27:18.262Z,3.83
2018-08-31T01:29:47.351Z,3.90
2018-08-31T01:32:15.528Z,4.33
2018-08-31T01:34:43.768Z,3.97
2018-08-31T01:37:12.013Z,3.70
2018-08-31T01:39:40.241Z,3.40
2018-08-31T01:42:08.633Z,3.60
2018-08-31T01:44:37.947Z,3.30
2018-08-31T01:47:06.317Z,3.60
2018-08-31T01:49:34.460Z,4.00
2018-08-31T01:52:02.863Z,3.70
2018-08-31T01:54:31.297Z,3.40
2018-08-31T01:56:59.709Z,2.73
2018-08-31T01:59:27.882Z,2.80
2018-08-31T02:01:56.140Z,2.57
2018-08-31T02:04:24.447Z,3.00
2018-08-31T02:06:52.738Z,2.70
2018-08-31T02:09:21.728Z,3.80
2018-08-31T02:11:50.996Z,2.33
2018-08-31T02:14:19.233Z,3.10
2018-08-31T02:16:47.458Z,3.40
2018-08-31T02:19:15.834Z,2.60
2018-08-31T02:21:43.978Z,2.83
2018-08-31T02:24:12.364Z,2.70
2018-08-31T02:26:40.483Z,3.03
2018-08-31T02:29:08.802Z,2.60
2018-08-31T02:31:37.041Z,2.37
2018-08-31T02:34:05.754Z,2.60
2018-08-31T02:36:34.012Z,1.93
2018-08-31T02:39:02.237Z,2.50
2018-08-31T02:41:30.402Z,2.13
2018-08-31T02:43:58.700Z,3.07
2018-08-31T02:46:26.948Z,2.80
2018-08-31T02:48:55.540Z,3.00
2018-08-31T02:51:23.832Z,2.60
2018-08-31T02:53:52.139Z,2.50
2018-08-31T02:56:20.416Z,2.77
2018-08-31T02:58:48.666Z,3.13
2018-08-31T03:01:16.875Z,2.80
2018-08-31T03:03:45.263Z,2.93
2018-08-31T03:06:13.416Z,3.50
2018-08-31T03:08:41.767Z,2.90
2018-08-31T03:11:09.913Z,2.90
2018-08-31T03:13:38.245Z,2.90
2018-08-31T03:16:06.615Z,2.80
2018-08-31T03:18:35.127Z,2.10
2018-08-31T03:21:03.361Z,2.80
2018-08-31T03:23:32.002Z,2.70
2018-08-31T03:26:00.243Z,2.50
2018-08-31T03:28:28.477Z,2.70
2018-08-31T03:30:56.816Z,2.93
2018-08-31T03:33:25.129Z,2.50
2018-08-31T03:35:53.320Z,2.30
2018-08-31T03:38:21.543Z,2.93
2018-08-31T03:40:49.917Z,2.27
2018-08-31T03:43:18.084Z,2.80
2018-08-31T03:45:46.439Z,2.40
2018-08-31T03:48:14.521Z,2.63
2018-08-31T03:50:42.761Z,2.70
2018-08-31T03:53:10.981Z,2.67
2018-08-31T03:55:39.369Z,2.73
2018-08-31T03:58:07.613Z,2.70
2018-08-31T04:00:36.047Z,2.57
2018-08-31T04:03:04.594Z,2.60
2018-08-31T04:05:32.809Z,2.60
2018-08-31T04:08:01.063Z,2.60
2018-08-31T04:10:29.370Z,2.50
2018-08-31T04:12:57.715Z,2.80
2018-08-31T04:15:26.120Z,2.83
2018-08-31T04:17:54.417Z,3.13
2018-08-31T04:20:22.693Z,3.47
2018-08-31T04:22:50.935Z,3.10
2018-08-31T04:25:19.167Z,2.93
2018-08-31T04:27:47.395Z,4.00
2018-08-31T04:30:16.243Z,3.60
2018-08-31T04:32:44.542Z,5.30
2018-08-31T04:35:12.751Z,5.47
2018-08-31T04:37:41.156Z,6.73
2018-08-31T04:40:09.676Z,5.97
2018-08-31T04:42:38.067Z,4.60
2018-08-31T04:45:06.551Z,3.33
2018-08-31T04:47:34.709Z,3.23
2018-08-31T04:50:03.058Z,3.53
2018-08-31T04:52:31.292Z,2.97
2018-08-31T04:54:59.509Z,3.00
2018-08-31T04:57:27.687Z,3.00
2018-08-31T04:59:55.797Z,2.80
2018-08-31T05:02:24.321Z,3.67
2018-08-31T05:04:52.512Z,3.93
2018-08-31T05:07:20.824Z,2.47
2018-08-31T05:09:49.019Z,2.80
2018-08-31T05:12:17.258Z,2.40
2018-08-31T05:14:45.418Z,2.67
2018-08-31T05:17:14.776Z,2.53
2018-08-31T05:19:43.021Z,2.50
2018-08-31T05:22:11.175Z,2.47
2018-08-31T05:24:39.436Z,2.77
2018-08-31T05:27:07.796Z,2.97
2018-08-31T05:29:35.956Z,2.20
2018-08-31T05:32:04.192Z,2.73
2018-08-31T05:34:32.447Z,2.67
2018-08-31T05:37:01.297Z,2.30
2018-08-31T05:39:29.585Z,2.33
2018-08-31T05:41:57.929Z,2.13
2018-08-31T05:44:26.017Z,2.20
2018-08-31T05:46:54.285Z,2.33
2018-08-31T05:49:22.533Z,2.30
2018-08-31T05:51:50.830Z,2.13
2018-08-31T05:54:19.344Z,2.07
2018-08-31T05:56:54.177Z,2.03
2018-08-31T05:59:22.419Z,2.30
2018-08-31T06:01:50.596Z,2.00
2018-08-31T06:04:18.810Z,1.87
2018-08-31T06:06:47.119Z,1.87
2018-08-31T06:09:15.256Z,3.23
2018-08-31T06:11:43.443Z,3.00
2018-08-31T06:14:11.681Z,2.00
2018-08-31T06:16:40.043Z,2.10
2018-08-31T06:19:08.172Z,2.20
2018-08-31T06:21:36.415Z,1.67
2018-08-31T06:24:04.767Z,1.90
2018-08-31T06:26:33.582Z,1.80
2018-08-31T06:29:01.711Z,1.90
2018-08-31T06:31:29.907Z,1.80
2018-08-31T06:33:58.303Z,1.93
2018-08-31T06:36:26.430Z,2.20
2018-08-31T06:38:54.610Z,1.97
2018-08-31T06:41:22.891Z,1.70
2018-08-31T06:43:51.242Z,2.00
2018-08-31T06:46:19.358Z,1.80
2018-08-31T06:48:47.627Z,1.50
2018-08-31T06:51:16.456Z,1.87
2018-08-31T06:53:44.686Z,1.90
2018-08-31T06:56:12.898Z,1.80
2018-08-31T06:58:41.144Z,1.43
2018-08-31T07:01:09.424Z,2.10
2018-08-31T07:03:37.641Z,1.73
2018-08-31T07:06:05.828Z,2.03
2018-08-31T07:08:34.072Z,1.73
2018-08-31T07:11:02.350Z,2.00
2018-08-31T07:13:30.690Z,1.80
2018-08-31T07:15:58.888Z,1.90
2018-08-31T07:18:26.998Z,1.80
2018-08-31T07:20:55.173Z,2.13
2018-08-31T07:23:23.606Z,1.70
2018-08-31T07:25:51.813Z,2.23
2018-08-31T07:28:19.963Z,2.13
2018-08-31T07:30:48.081Z,1.60
2018-08-31T07:33:16.223Z,2.03
2018-08-31T07:35:44.509Z,2.13
2018-08-31T07:38:12.727Z,1.77
2018-08-31T07:40:40.905Z,1.50
2018-08-31T07:43:09.161Z,2.23
2018-08-31T07:45:37.406Z,1.70
2018-08-31T07:48:05.663Z,1.93
2018-08-31T07:50:33.853Z,1.67
2018-08-31T07:53:02.191Z,1.45
2018-08-31T07:55:30.411Z,1.52
2018-08-31T07:58:00.210Z,1.55
2018-08-31T08:00:28.400Z,1.60
2018-08-31T08:02:56.750Z,1.40
2018-08-31T08:05:25.734Z,1.57
2018-08-31T08:07:54.150Z,1.50
2018-08-31T08:10:22.261Z,1.57
2018-08-31T08:12:50.610Z,1.60
2018-08-31T08:15:18.712Z,1.30
2018-08-31T08:17:47.092Z,1.30
2018-08-31T08:20:15.295Z,1.60
2018-08-31T08:22:43.714Z,1.83
2018-08-31T08:25:11.884Z,1.60
2018-08-31T08:27:40.596Z,1.50
2018-08-31T08:30:08.901Z,1.50
2018-08-31T08:32:37.101Z,1.17
2018-08-31T08:35:05.424Z,1.33
2018-08-31T08:37:33.677Z,1.30
2018-08-31T08:40:01.981Z,1.33
2018-08-31T08:42:30.313Z,1.33
2018-08-31T08:44:58.464Z,1.20
2018-08-31T08:47:26.689Z,1.70
2018-08-31T08:49:55.071Z,1.33
2018-08-31T08:52:24.008Z,1.35
2018-08-31T08:54:52.187Z,1.30
2018-08-31T08:57:20.467Z,1.40
2018-08-31T08:59:48.696Z,1.27
2018-08-31T09:02:17.111Z,1.42
2018-08-31T09:04:45.461Z,1.60
2018-08-31T09:07:15.947Z,1.13
2018-08-31T09:09:44.930Z,1.70
2018-08-31T09:12:13.189Z,1.87
2018-08-31T09:14:41.343Z,1.20
2018-08-31T09:17:09.645Z,1.35
2018-08-31T09:19:38.030Z,1.10
2018-08-31T09:22:06.271Z,1.15
2018-08-31T09:24:34.599Z,1.37
2018-08-31T09:27:02.869Z,1.30
2018-08-31T09:29:31.117Z,1.30
2018-08-31T09:32:03.875Z,1.60
2018-08-31T09:34:32.007Z,1.57
2018-08-31T09:37:00.195Z,1.57
2018-08-31T09:39:28.409Z,1.50
2018-08-31T09:41:56.557Z,1.20
2018-08-31T09:44:24.750Z,1.50
2018-08-31T09:46:53.005Z,1.10
2018-08-31T09:49:21.274Z,1.42
2018-08-31T09:51:49.509Z,1.27
2018-08-31T09:54:17.695Z,1.55
2018-08-31T09:56:45.980Z,1.15
2018-08-31T09:59:14.281Z,1.05
2018-08-31T10:01:43.113Z,1.15
2018-08-31T10:04:11.281Z,1.20
2018-08-31T10:06:39.550Z,1.30
2018-08-31T10:09:08.993Z,1.40
2018-08-31T10:11:37.180Z,1.20
2018-08-31T10:14:05.430Z,1.50
2018-08-31T10:16:33.733Z,1.25
2018-08-31T10:19:01.929Z,1.20
2018-08-31T10:21:30.469Z,1.12
2018-08-31T10:23:59.203Z,1.30
2018-08-31T10:26:27.351Z,1.15
2018-08-31T10:28:55.479Z,1.65
2018-08-31T10:31:23.613Z,0.93
2018-08-31T10:33:51.811Z,0.93
2018-08-31T10:36:20.090Z,0.98
2018-08-31T10:38:48.373Z,1.10
2018-08-31T10:41:16.606Z,1.10
2018-08-31T10:43:44.787Z,0.93
2018-08-31T10:46:13.072Z,1.20
2018-08-31T10:48:41.404Z,1.02
2018-08-31T10:51:09.748Z,1.10
2018-08-31T10:53:37.900Z,1.40
2018-08-31T10:56:06.114Z,1.10
2018-08-31T10:58:34.326Z,1.20
2018-08-31T11:01:02.604Z,1.12
2018-08-31T11:03:30.890Z,1.50
2018-08-31T11:05:59.075Z,1.15
2018-08-31T11:08:27.373Z,1.10
2018-08-31T11:10:55.559Z,1.20
2018-08-31T11:13:23.766Z,1.05
2018-08-31T11:15:51.916Z,1.10
2018-08-31T11:18:20.066Z,1.10
2018-08-31T11:20:48.383Z,1.57
2018-08-31T11:23:16.598Z,1.27
2018-08-31T11:25:44.849Z,1.25
2018-08-31T11:28:13.034Z,1.42
2018-08-31T11:30:41.397Z,1.65
2018-08-31T11:33:09.589Z,1.62
2018-08-31T11:35:39.046Z,1.50
2018-08-31T11:38:07.317Z,1.50
2018-08-31T11:40:35.496Z,1.52
2018-08-31T11:43:03.899Z,1.30
2018-08-31T11:45:32.802Z,1.20
2018-08-31T11:48:01.081Z,1.25
2018-08-31T11:50:29.363Z,1.17
2018-08-31T11:52:57.593Z,1.30
2018-08-31T11:55:26.468Z,1.07
2018-08-31T11:57:54.703Z,0.93
2018-08-31T12:00:22.922Z,1.07
2018-08-31T12:02:51.283Z,1.07
2018-08-31T12:05:20.232Z,1.15
2018-08-31T12:07:48.436Z,1.00
2018-08-31T12:10:16.748Z,1.07
2018-08-31T12:12:44.930Z,1.10
2018-08-31T12:15:13.234Z,1.05
2018-08-31T12:17:41.432Z,1.02
2018-08-31T12:20:09.630Z,1.40
2018-08-31T12:22:37.914Z,1.07
2018-08-31T12:25:07.004Z,1.22
2018-08-31T12:27:35.207Z,1.42
2018-08-31T12:30:03.653Z,1.47
2018-08-31T12:32:31.911Z,1.35
2018-08-31T12:35:00.070Z,1.30
2018-08-31T12:37:28.893Z,1.30
2018-08-31T12:39:57.124Z,1.40
2018-08-31T12:42:25.349Z,0.78
2018-08-31T12:44:53.705Z,1.22
2018-08-31T12:47:21.832Z,1.12
2018-08-31T12:49:50.002Z,1.30
2018-08-31T12:52:18.153Z,1.32
2018-08-31T12:54:46.298Z,1.20
2018-08-31T12:57:14.478Z,0.90
2018-08-31T12:59:47.258Z,0.80
2018-08-31T13:02:15.431Z,1.22
2018-08-31T13:04:43.574Z,1.17
2018-08-31T13:07:11.840Z,1.30
2018-08-31T13:09:40.094Z,1.12
2018-08-31T13:12:08.416Z,1.10
2018-08-31T13:14:36.613Z,1.32
2018-08-31T13:17:04.941Z,1.20
2018-08-31T13:19:33.409Z,1.20
2018-08-31T13:22:01.531Z,1.65
2018-08-31T13:24:30.134Z,1.35
2018-08-31T13:26:58.757Z,1.25
2018-08-31T13:29:26.949Z,1.20
2018-08-31T13:31:55.152Z,1.25
2018-08-31T13:34:24.529Z,1.40
2018-08-31T13:36:52.899Z,1.40
2018-08-31T13:39:21.295Z,1.50
2018-08-31T13:41:49.676Z,1.55
2018-08-31T13:44:17.922Z,1.20
2018-08-31T13:46:46.227Z,1.15
2018-08-31T13:49:14.453Z,1.42
2018-08-31T13:51:42.601Z,1.37
2018-08-31T13:54:10.869Z,1.30
2018-08-31T13:56:39.154Z,1.30
2018-08-31T13:59:07.436Z,1.27
2018-08-31T14:01:35.659Z,1.50
2018-08-31T14:04:03.826Z,1.20
2018-08-31T14:06:32.234Z,1.30
2018-08-31T14:09:00.508Z,1.20
2018-08-31T14:11:28.743Z,1.50
2018-08-31T14:13:56.864Z,1.57
2018-08-31T14:16:25.094Z,1.30
2018-08-31T14:18:53.392Z,1.30
2018-08-31T14:21:21.536Z,1.20
2018-08-31T14:23:49.979Z,1.52
2018-08-31T14:26:18.529Z,1.45
2018-08-31T14:28:46.878Z,1.37
2018-08-31T14:31:15.063Z,1.37
2018-08-31T14:33:43.243Z,1.10
2018-08-31T14:36:11.461Z,1.52
2018-08-31T14:38:39.764Z,1.42
2018-08-31T14:41:07.932Z,1.50
2018-08-31T14:43:36.242Z,1.12
2018-08-31T14:46:04.472Z,1.40
2018-08-31T14:48:32.720Z,1.57
2018-08-31T14:51:01.006Z,1.57
2018-08-31T14:53:29.981Z,1.50
2018-08-31T14:55:58.144Z,1.67
2018-08-31T14:58:26.422Z,1.40
2018-08-31T15:00:54.545Z,1.60
2018-08-31T15:03:22.762Z,1.40
2018-08-31T15:05:50.955Z,1.60
2018-08-31T15:08:19.149Z,1.83
2018-08-31T15:10:47.237Z,1.40
2018-08-31T15:13:15.559Z,1.70
2018-08-31T15:15:44.706Z,2.00
2018-08-31T15:18:13.211Z,1.30
2018-08-31T15:20:41.494Z,1.50
2018-08-31T15:23:09.658Z,1.40
2018-08-31T15:25:38.025Z,1.37
2018-08-31T15:28:06.195Z,1.03
2018-08-31T15:30:34.461Z,1.20
2018-08-31T15:33:02.748Z,1.30
2018-08-31T15:35:31.048Z,1.40
2018-08-31T15:37:59.919Z,1.17
2018-08-31T15:40:28.109Z,1.10
2018-08-31T15:42:56.284Z,1.13
2018-08-31T15:45:24.560Z,1.27
2018-08-31T15:47:52.758Z,1.40
2018-08-31T15:50:21.082Z,1.30
2018-08-31T15:52:49.310Z,1.50
2018-08-31T15:55:17.534Z,1.10
2018-08-31T15:57:45.753Z,1.20
2018-08-31T16:00:13.983Z,1.63
2018-08-31T16:02:42.178Z,1.50
2018-08-31T16:05:10.452Z,1.13
2018-08-31T16:07:39.455Z,1.13
2018-08-31T16:10:08.415Z,1.37
2018-08-31T16:12:37.252Z,1.10
2018-08-31T16:15:05.501Z,1.50
2018-08-31T16:17:33.673Z,1.30
2018-08-31T16:20:01.874Z,1.63
2018-08-31T16:22:30.115Z,1.63
2018-08-31T16:24:58.368Z,1.30
2018-08-31T16:27:26.610Z,1.40
2018-08-31T16:29:54.804Z,1.20
2018-08-31T16:32:23.635Z,1.37
2018-08-31T16:34:51.865Z,1.40
2018-08-31T16:37:20.096Z,1.57
2018-08-31T16:39:48.293Z,1.73
2018-08-31T16:42:16.552Z,1.40
2018-08-31T16:44:45.397Z,1.47
2018-08-31T16:47:13.837Z,1.50
2018-08-31T16:49:42.210Z,1.47
2018-08-31T16:52:10.533Z,1.70
2018-08-31T16:54:38.737Z,1.47
2018-08-31T16:57:06.995Z,1.40
2018-08-31T16:59:35.365Z,1.50
2018-08-31T17:02:03.769Z,1.33
2018-08-31T17:04:31.906Z,1.27
2018-08-31T17:07:00.093Z,1.67
2018-08-31T17:09:28.299Z,1.30
2018-08-31T17:11:56.558Z,1.50
2018-08-31T17:14:24.721Z,1.57
2018-08-31T17:16:53.001Z,1.50
2018-08-31T17:19:21.146Z,1.63
2018-08-31T17:21:49.470Z,1.47
2018-08-31T17:24:17.713Z,1.90
2018-08-31T17:26:51.479Z,1.87
2018-08-31T17:29:25.309Z,1.50
2018-08-31T17:31:59.135Z,1.57
2018-08-31T17:34:32.891Z,1.57
2018-08-31T17:37:06.835Z,1.47
2018-08-31T17:39:35.682Z,1.43
2018-08-31T17:42:03.920Z,1.70
2018-08-31T17:44:32.093Z,1.60
2018-08-31T17:47:00.299Z,1.93
2018-08-31T17:49:28.642Z,1.63
2018-08-31T17:51:56.873Z,1.83
2018-08-31T17:54:25.272Z,1.60
2018-08-31T17:56:53.552Z,1.20
2018-08-31T17:59:21.849Z,1.50
2018-08-31T18:01:50.041Z,1.90
2018-08-31T18:04:18.341Z,1.37
2018-08-31T18:06:46.589Z,1.40
2018-08-31T18:09:14.888Z,1.90
2018-08-31T18:11:43.847Z,1.50
2018-08-31T18:14:12.082Z,1.90
2018-08-31T18:16:41.807Z,1.67
2018-08-31T18:19:10.533Z,1.50
2018-08-31T18:21:39.897Z,2.27
2018-08-31T18:24:08.299Z,1.77
2018-08-31T18:26:38.035Z,1.70
2018-08-31T18:29:06.725Z,2.03
2018-08-31T18:31:35.163Z,2.40
2018-08-31T18:34:03.470Z,1.80
2018-08-31T18:36:31.884Z,2.23
2018-08-31T18:39:00.067Z,1.90
2018-08-31T18:41:28.676Z,1.47
2018-08-31T18:43:57.138Z,1.30
2018-08-31T18:46:25.760Z,1.80
2018-08-31T18:48:54.249Z,1.90
2018-08-31T18:51:22.605Z,1.90
2018-08-31T18:53:50.845Z,2.00
2018-08-31T18:56:19.061Z,1.90
2018-08-31T18:58:48.531Z,2.03
2018-08-31T19:01:16.811Z,2.10
2018-08-31T19:03:45.119Z,2.10
2018-08-31T19:06:13.304Z,2.20
2018-08-31T19:08:41.595Z,1.80
2018-08-31T19:11:09.861Z,2.00
2018-08-31T19:13:38.148Z,2.67
2018-08-31T19:16:06.311Z,2.47
2018-08-31T19:18:34.609Z,2.83
2018-08-31T19:21:02.835Z,1.90
2018-08-31T19:23:31.167Z,1.93
2018-08-31T19:25:59.508Z,1.80
2018-08-31T19:28:27.807Z,2.20
2018-08-31T19:30:56.175Z,1.70
2018-08-31T19:33:24.389Z,1.70
2018-08-31T19:35:52.819Z,1.87
2018-08-31T19:38:20.965Z,1.70
2018-08-31T19:40:49.148Z,1.57
2018-08-31T19:43:17.295Z,1.60
2018-08-31T19:45:45.521Z,1.60
2018-08-31T19:48:13.911Z,1.80
2018-08-31T19:50:42.086Z,2.27
2018-08-31T19:53:10.267Z,2.50
2018-08-31T19:55:38.444Z,2.27
2018-08-31T19:58:06.809Z,2.10
2018-08-31T20:00:35.110Z,2.10
2018-08-31T20:03:03.613Z,2.10
2018-08-31T20:05:31.919Z,2.30
2018-08-31T20:08:00.873Z,2.57
2018-08-31T20:10:29.230Z,2.57
2018-08-31T20:12:57.461Z,2.30
2018-08-31T20:15:25.735Z,2.73
2018-08-31T20:17:54.788Z,2.80
2018-08-31T20:20:23.235Z,3.30
2018-08-31T20:22:51.467Z,3.77
2018-08-31T20:25:19.742Z,3.50
2018-08-31T20:27:47.908Z,3.30
2018-08-31T20:30:16.309Z,3.03
2018-08-31T20:32:44.537Z,3.20
2018-08-31T20:35:12.782Z,3.83
2018-08-31T20:37:40.994Z,4.40
2018-08-31T20:40:09.261Z,4.00
2018-08-31T20:42:37.428Z,3.97
2018-08-31T20:45:06.649Z,4.50
2018-08-31T20:47:34.972Z,4.23
2018-08-31T20:50:03.414Z,3.90
2018-08-31T20:52:31.755Z,4.13
2018-08-31T20:54:59.992Z,5.10
2018-08-31T20:57:28.560Z,4.60
2018-08-31T20:59:58.163Z,4.47
2018-08-31T21:02:26.713Z,4.43
2018-08-31T21:04:55.010Z,4.13
2018-08-31T21:07:23.360Z,4.60
2018-08-31T21:09:51.612Z,4.80
2018-08-31T21:12:19.867Z,5.10
2018-08-31T21:14:48.112Z,5.13
2018-08-31T21:17:16.461Z,4.73
2018-08-31T21:19:44.671Z,4.40
2018-08-31T21:22:12.877Z,4.70
2018-08-31T21:24:41.092Z,4.20
2018-08-31T21:27:09.378Z,4.40
2018-08-31T21:29:37.596Z,3.97
2018-08-31T21:32:05.870Z,4.23
2018-08-31T21:34:34.031Z,4.33
2018-08-31T21:37:02.420Z,4.07
2018-08-31T21:39:30.613Z,4.07
2018-08-31T21:41:58.856Z,3.10
2018-08-31T21:44:27.170Z,3.50
2018-08-31T21:46:55.638Z,2.10
2018-08-31T21:49:23.924Z,2.77
2018-08-31T21:51:52.180Z,2.00
2018-08-31T21:54:20.524Z,1.87
2018-08-31T21:56:48.746Z,2.20
2018-08-31T21:59:16.956Z,2.20
2018-08-31T22:01:50.810Z,2.03
2018-08-31T22:04:19.125Z,1.90
2018-08-31T22:06:47.469Z,1.70
2018-08-31T22:09:15.812Z,1.80
2018-08-31T22:11:44.027Z,1.67
2018-08-31T22:14:12.243Z,2.27
2018-08-31T22:16:40.495Z,1.30
2018-08-31T22:19:08.887Z,1.80
2018-08-31T22:21:37.920Z,1.60
2018-08-31T22:24:06.218Z,1.83
2018-08-31T22:26:34.475Z,2.37
2018-08-31T22:29:03.451Z,3.17
2018-08-31T22:31:31.607Z,3.60
2018-08-31T22:33:59.795Z,3.30
2018-08-31T22:36:28.719Z,3.93
2018-08-31T22:38:57.045Z,3.90
2018-08-31T22:41:25.385Z,3.90
2018-08-31T22:43:53.589Z,3.33
2018-08-31T22:46:22.947Z,3.60
2018-08-31T22:48:51.729Z,4.13
2018-08-31T22:51:20.877Z,4.50
2018-08-31T22:53:49.455Z,4.43
2018-08-31T22:56:17.693Z,3.77
2018-08-31T22:58:45.897Z,3.23
2018-08-31T23:01:14.205Z,3.43
2018-08-31T23:03:43.224Z,3.73
2018-08-31T23:06:11.579Z,3.07
2018-08-31T23:08:39.753Z,2.83
2018-08-31T23:11:11.137Z,2.40
2018-08-31T23:13:41.851Z,2.20
2018-08-31T23:16:10.094Z,2.37
2018-08-31T23:18:39.230Z,2.00
2018-08-31T23:21:08.141Z,1.80
2018-08-31T23:23:41.844Z,1.63
2018-08-31T23:26:10.028Z,1.80
2018-08-31T23:28:38.379Z,1.60
2018-08-31T23:31:06.782Z,1.70
2018-08-31T23:33:35.654Z,1.50
2018-08-31T23:36:04.524Z,1.40
2018-08-31T23:38:32.764Z,1.30
2018-08-31T23:41:01.078Z,1.43
2018-08-31T23:43:29.411Z,1.70
2018-08-31T23:45:58.491Z,1.77
2018-08-31T23:48:26.706Z,1.80
2018-08-31T23:50:54.880Z,1.20
2018-08-31T23:53:27.106Z,1.60
2018-08-31T23:55:55.293Z,1.70
2018-08-31T23:58:23.525Z,1.70
